Huvudsida
METAR-TAF:

METAR-TAF

Flygplatser :

Mehamns flygplats

Gamvik, Norge

latitud: 71-02N, longitud: 027-50E, höjd: 1 m

Aktuellt väderrapport

Denna rapport gjordes för 41 minuter sedan, klockan 20:50 UTC
Vind 2 kt varierande vindriktning
Temperatur 8°C
Fuktighet 100%
Tryck 998 hPa
Sikt 10 km eller mer
Få moln på en höjd av 400 ft
Brutna moln på en höjd av 1000 ft

METAR: ENMH 202050Z VRB02KT 9999 FEW004 BKN010 08/08 Q0998

Tid: 23:31 (21:31 UTC)

Väderprognos

Denna rapport gjordes för 3 timmar och 40 minuter sedan, klockan 17:51 UTC
Prognos gäller från 20 kl. 17 UTC till 20 kl. 22 UTC
Vind 6 kt från syd/sydost
Sikt 10 km eller mer
Spridda moln på en höjd av 1000 ft
Brutna moln på en höjd av 1800 ft
Temporärt
från 20 kl. 17 UTC till 20 kl. 22 UTC
Sikt: 4000 m
Brutna moln på en höjd av 400 ft
lätt regn, fuktdis,

TAF: ENMH 201751Z 2017/2022 15006KT 9999 SCT010 BKN018 TEMPO 2017/2022 4000 -RA BR BKN004

Aktuella väderrapporter och prognoser från 4000 flygplatser (METAR- och TAF-rapporter).

De tillgängliga stationerna syns som gula och röda prickar på kartan.

För musen över prickarna för att se namnen på stationerna.

Klicka sedan för att få väderrapporter och prognoser.

För att ändra kartan: Klicka på de gröna knapparna med ett svart kors på för att zooma in; den gröna knappen med ett streck på för att zooma ut; eller på de gröna pilarna för angränsande kartor.


METAR-TAF: